createdAt,value
2017-07-01T00:00:46.701Z,100024.98
2017-07-01T00:03:19.007Z,100019.30
2017-07-01T00:05:51.387Z,100025.50
2017-07-01T00:08:23.985Z,100016.58
2017-07-01T00:10:56.357Z,100017.50
2017-07-01T00:13:28.635Z,100018.72
2017-07-01T00:16:01.088Z,100009.98
2017-07-01T00:18:33.451Z,100012.33
2017-07-01T00:21:05.741Z,100007.02
2017-07-01T00:23:38.111Z,100008.45
2017-07-01T00:26:11.112Z,100014.05
2017-07-01T00:28:43.715Z,100011.91
2017-07-01T00:31:16.188Z,100007.75
2017-07-01T00:33:48.301Z,100011.58
2017-07-01T00:36:20.681Z,99999.63
2017-07-01T00:38:53.069Z,99999.52
2017-07-01T00:41:25.489Z,99994.54
2017-07-01T00:43:58.058Z,99997.84
2017-07-01T00:46:30.316Z,99996.56
2017-07-01T00:49:02.977Z,99997.17
2017-07-01T00:51:35.053Z,99993.92
2017-07-01T00:54:07.499Z,99994.70
2017-07-01T00:56:39.834Z,99991.32
2017-07-01T00:59:12.571Z,99993.16
2017-07-01T01:01:44.748Z,99992.41
2017-07-01T01:04:18.193Z,99991.57
2017-07-01T01:06:50.552Z,99983.73
2017-07-01T01:09:23.080Z,99985.02
2017-07-01T01:11:55.299Z,99973.32
2017-07-01T01:14:27.837Z,99982.57
2017-07-01T01:17:00.112Z,99988.98
2017-07-01T01:19:32.488Z,99981.03
2017-07-01T01:22:04.797Z,99989.27
2017-07-01T01:24:37.195Z,99982.62
2017-07-01T01:27:09.596Z,99983.56
2017-07-01T01:29:42.107Z,99983.06
2017-07-01T01:32:14.418Z,99975.27
2017-07-01T01:34:46.819Z,99973.82
2017-07-01T01:37:19.320Z,99978.98
2017-07-01T01:39:51.608Z,99980.42
2017-07-01T01:42:24.067Z,99981.61
2017-07-01T01:44:56.458Z,99974.22
2017-07-01T01:47:28.786Z,99975.17
2017-07-01T01:50:01.371Z,99956.84
2017-07-01T01:52:33.648Z,99969.64
2017-07-01T01:55:06.072Z,99968.54
2017-07-01T01:57:38.503Z,99962.78
2017-07-01T02:00:10.648Z,99968.48
2017-07-01T02:02:43.046Z,99968.89
2017-07-01T02:05:15.608Z,99960.58
2017-07-01T02:07:48.087Z,99958.13
2017-07-01T02:10:20.308Z,99951.07
2017-07-01T02:12:53.023Z,99956.16
2017-07-01T02:15:25.417Z,99952.85
2017-07-01T02:17:59.777Z,99957.17
2017-07-01T02:20:43.228Z,99955.05
2017-07-01T02:23:15.690Z,99953.96
2017-07-01T02:26:00.403Z,99952.52
2017-07-01T02:28:32.672Z,99953.72
2017-07-01T02:31:04.919Z,99943.44
2017-07-01T02:33:44.320Z,99949.55
2017-07-01T02:36:19.508Z,99954.70
2017-07-01T02:38:52.252Z,99946.16
2017-07-01T02:41:24.104Z,99942.91
2017-07-01T02:43:56.481Z,99946.06
2017-07-01T02:46:39.639Z,99947.91
2017-07-01T02:49:14.061Z,99949.63
2017-07-01T02:52:06.865Z,99946.80
2017-07-01T02:55:00.510Z,99949.28
2017-07-01T02:57:32.979Z,99950.73
2017-07-01T03:00:06.344Z,99950.91
2017-07-01T03:02:38.903Z,99951.77
2017-07-01T03:05:12.257Z,99947.16
2017-07-01T03:07:44.834Z,99950.05
2017-07-01T03:10:17.436Z,99952.34
2017-07-01T03:12:49.573Z,99956.51
2017-07-01T03:15:21.959Z,99953.35
2017-07-01T03:18:15.236Z,99951.66
2017-07-01T03:20:48.133Z,99950.23
2017-07-01T03:23:20.465Z,99944.30
2017-07-01T03:25:55.734Z,99946.83
2017-07-01T03:28:28.357Z,99946.99
2017-07-01T03:31:00.645Z,99941.82
2017-07-01T03:33:38.988Z,99939.52
2017-07-01T03:36:11.391Z,99942.77
2017-07-01T03:38:56.273Z,99938.78
2017-07-01T03:41:44.189Z,99943.17
2017-07-01T03:44:22.895Z,99942.42
2017-07-01T03:46:55.787Z,99943.95
2017-07-01T03:49:33.296Z,99936.08
2017-07-01T03:52:05.781Z,99943.85
2017-07-01T03:54:48.071Z,99934.27
2017-07-01T03:57:20.636Z,99935.48
2017-07-01T03:59:53.124Z,99939.30
2017-07-01T04:02:24.980Z,99939.55
2017-07-01T04:04:57.512Z,99934.63
2017-07-01T04:07:29.572Z,99926.48
2017-07-01T04:10:01.964Z,99931.55
2017-07-01T04:12:34.505Z,99930.99
2017-07-01T04:15:06.824Z,99927.75
2017-07-01T04:17:39.424Z,99932.52
2017-07-01T04:20:11.623Z,99929.53
2017-07-01T04:22:45.741Z,99935.91
2017-07-01T04:25:17.740Z,99942.34
2017-07-01T04:27:50.076Z,99938.87
2017-07-01T04:30:22.344Z,99932.16
2017-07-01T04:32:54.800Z,99938.03
2017-07-01T04:35:27.047Z,99935.66
2017-07-01T04:37:59.450Z,99935.83
2017-07-01T04:40:32.916Z,99945.16
2017-07-01T04:43:07.905Z,99940.22
2017-07-01T04:45:40.577Z,99944.80
2017-07-01T04:48:13.899Z,99948.95
2017-07-01T04:50:59.027Z,99948.70
2017-07-01T04:53:31.911Z,99952.97
2017-07-01T04:56:04.670Z,99952.86
2017-07-01T04:58:37.024Z,99951.86
2017-07-01T05:01:10.335Z,99951.94
2017-07-01T05:03:51.873Z,99944.05
2017-07-01T05:06:26.167Z,99944.55
2017-07-01T05:08:58.020Z,99951.27
2017-07-01T05:11:30.759Z,99953.04
2017-07-01T05:14:03.159Z,99950.55
2017-07-01T05:16:37.385Z,99948.13
2017-07-01T05:19:10.467Z,99952.27
2017-07-01T05:21:42.531Z,99954.06
2017-07-01T05:24:16.241Z,99957.04
2017-07-01T05:26:48.901Z,99957.96
2017-07-01T05:29:21.628Z,99960.15
2017-07-01T05:31:54.084Z,99963.13
2017-07-01T05:34:26.550Z,99959.64
2017-07-01T05:36:59.868Z,99961.00
2017-07-01T05:39:32.444Z,99963.57
2017-07-01T05:42:27.753Z,99963.48
2017-07-01T05:45:00.577Z,99971.27
2017-07-01T05:47:32.377Z,99967.70
2017-07-01T05:50:04.721Z,99977.81
2017-07-01T05:52:37.086Z,99978.41
2017-07-01T05:55:09.503Z,99976.02
2017-07-01T05:57:44.330Z,99979.86
2017-07-01T06:00:19.277Z,99985.60
2017-07-01T06:02:52.473Z,99987.83
2017-07-01T06:05:25.857Z,99989.42
2017-07-01T06:07:58.223Z,99987.56
2017-07-01T06:10:35.551Z,99993.00
2017-07-01T06:13:08.820Z,99988.84
2017-07-01T06:15:50.250Z,99989.74
2017-07-01T06:18:28.968Z,99991.59
2017-07-01T06:21:07.117Z,99993.87
2017-07-01T06:24:02.547Z,99992.53
2017-07-01T06:26:57.191Z,99996.16
2017-07-01T06:29:41.391Z,100003.80
2017-07-01T06:32:28.881Z,100005.23
2017-07-01T06:35:10.556Z,100013.30
2017-07-01T06:37:54.796Z,100021.19
2017-07-01T06:40:49.512Z,100019.52
2017-07-01T06:43:22.295Z,100030.77
2017-07-01T06:45:54.753Z,100027.80
2017-07-01T06:48:27.641Z,100033.16
2017-07-01T06:51:00.011Z,100036.78
2017-07-01T06:53:32.761Z,100035.30
2017-07-01T06:56:04.966Z,100040.47
2017-07-01T06:58:37.057Z,100041.22
2017-07-01T07:01:09.688Z,100043.73
2017-07-01T07:03:42.537Z,100039.33
2017-07-01T07:06:14.875Z,100045.66
2017-07-01T07:08:47.648Z,100046.69
2017-07-01T07:11:20.007Z,100051.76
2017-07-01T07:13:52.481Z,100052.20
2017-07-01T07:16:24.782Z,100049.80
2017-07-01T07:18:56.939Z,100048.73
2017-07-01T07:21:28.919Z,100051.47
2017-07-01T07:24:00.855Z,100052.01
2017-07-01T07:26:33.516Z,100056.86
2017-07-01T07:29:09.364Z,100056.96
2017-07-01T07:31:41.800Z,100054.77
2017-07-01T07:34:13.777Z,100049.66
2017-07-01T07:36:46.272Z,100052.12
2017-07-01T07:39:18.585Z,100055.66
2017-07-01T07:41:51.203Z,100054.52
2017-07-01T07:44:24.652Z,100060.81
2017-07-01T07:46:57.132Z,100058.95
2017-07-01T07:49:29.549Z,100058.05
2017-07-01T07:52:01.894Z,100059.20
2017-07-01T07:54:34.494Z,100063.94
2017-07-01T07:57:06.593Z,100065.80
2017-07-01T07:59:38.893Z,100063.66
2017-07-01T08:02:11.325Z,100074.73
2017-07-01T08:04:43.713Z,100073.52
2017-07-01T08:07:17.098Z,100084.06
2017-07-01T08:09:49.600Z,100088.75
2017-07-01T08:12:21.854Z,100093.28
2017-07-01T08:14:54.636Z,100093.56
2017-07-01T08:17:26.699Z,100098.81
2017-07-01T08:19:59.283Z,100090.01
2017-07-01T08:22:31.545Z,100089.15
2017-07-01T08:25:04.088Z,100089.28
2017-07-01T08:27:36.429Z,100089.31
2017-07-01T08:30:08.996Z,100081.22
2017-07-01T08:32:41.630Z,100075.58
2017-07-01T08:35:13.836Z,100080.07
2017-07-01T08:37:46.300Z,100076.50
2017-07-01T08:40:18.709Z,100078.33
2017-07-01T08:42:51.370Z,100085.17
2017-07-01T08:45:23.528Z,100091.20
2017-07-01T08:47:55.883Z,100080.19
2017-07-01T08:50:28.196Z,100082.05
2017-07-01T08:53:00.543Z,100092.52
2017-07-01T08:55:34.156Z,100093.64
2017-07-01T08:58:06.348Z,100095.29
2017-07-01T09:00:39.552Z,100104.08
2017-07-01T09:03:12.408Z,100103.22
2017-07-01T09:05:44.488Z,100096.33
2017-07-01T09:08:16.749Z,100104.17
2017-07-01T09:10:50.745Z,100100.20
2017-07-01T09:13:22.565Z,100098.45
2017-07-01T09:15:54.995Z,100107.38
2017-07-01T09:18:27.401Z,100108.39
2017-07-01T09:20:59.859Z,100111.24
2017-07-01T09:23:32.205Z,100109.86
2017-07-01T09:26:05.116Z,100116.05
2017-07-01T09:28:36.980Z,100121.02
2017-07-01T09:31:09.471Z,100124.23
2017-07-01T09:33:41.909Z,100125.17
2017-07-01T09:36:14.373Z,100134.34
2017-07-01T09:38:46.855Z,100136.86
2017-07-01T09:41:19.364Z,100135.53
2017-07-01T09:43:52.220Z,100140.58
2017-07-01T09:46:24.903Z,100138.44
2017-07-01T09:48:57.280Z,100143.92
2017-07-01T09:51:29.574Z,100145.13
2017-07-01T09:54:02.031Z,100155.68
2017-07-01T09:56:34.508Z,100150.81
2017-07-01T10:12:13.525Z,100181.50
2017-07-01T10:14:45.856Z,100187.77
2017-07-01T10:17:19.260Z,100198.62
2017-07-01T10:19:52.226Z,100202.66
2017-07-01T10:22:24.347Z,100202.33
2017-07-01T10:24:56.762Z,100204.23
2017-07-01T10:27:29.209Z,100212.59
2017-07-01T10:30:01.548Z,100215.01
2017-07-01T10:32:34.036Z,100215.61
2017-07-01T10:35:06.423Z,100219.30
2017-07-01T10:37:38.846Z,100226.81
2017-07-01T10:40:11.147Z,100231.19
2017-07-01T10:42:43.528Z,100231.92
2017-07-01T10:45:15.825Z,100230.36
2017-07-01T10:47:48.220Z,100236.46
2017-07-01T10:50:20.523Z,100235.14
2017-07-01T10:52:53.008Z,100238.73
2017-07-01T10:55:25.371Z,100243.89
2017-07-01T10:57:57.680Z,100247.79
2017-07-01T11:00:30.053Z,100248.62
2017-07-01T11:03:02.355Z,100246.60
2017-07-01T11:05:34.676Z,100250.69
2017-07-01T11:08:07.087Z,100256.80
2017-07-01T11:10:39.448Z,100258.53
2017-07-01T11:13:11.805Z,100255.68
2017-07-01T11:15:44.260Z,100257.30
2017-07-01T11:18:16.669Z,100260.77
2017-07-01T11:20:48.991Z,100266.80
2017-07-01T11:23:21.339Z,100267.11
2017-07-01T11:25:53.822Z,100272.59
2017-07-01T11:28:26.164Z,100272.38
2017-07-01T11:30:58.429Z,100283.50
2017-07-01T11:33:30.720Z,100282.70
2017-07-01T11:36:03.236Z,100285.39
2017-07-01T11:38:35.629Z,100284.91
2017-07-01T11:41:07.816Z,100285.30
2017-07-01T11:43:40.168Z,100292.36
2017-07-01T11:46:12.865Z,100276.67
2017-07-01T11:48:44.980Z,100272.14
2017-07-01T11:51:17.411Z,100276.55
2017-07-01T11:53:49.911Z,100280.95
2017-07-01T11:56:22.228Z,100278.02
2017-07-01T11:58:55.259Z,100288.45
2017-07-01T12:01:28.613Z,100287.93
2017-07-01T12:04:00.355Z,100291.77
2017-07-01T12:06:33.004Z,100297.44
2017-07-01T12:09:05.202Z,100295.88
2017-07-01T12:11:37.551Z,100301.70
2017-07-01T12:14:09.921Z,100306.84
2017-07-01T12:16:42.266Z,100301.32
2017-07-01T12:19:14.817Z,100302.91
2017-07-01T12:21:47.103Z,100310.19
2017-07-01T12:24:20.423Z,100315.00
2017-07-01T12:26:52.788Z,100312.67
2017-07-01T12:29:25.808Z,100318.87
2017-07-01T12:31:57.721Z,100325.45
2017-07-01T12:34:30.161Z,100319.27
2017-07-01T12:37:02.432Z,100314.20
2017-07-01T12:39:34.787Z,100323.05
2017-07-01T12:42:07.219Z,100318.14
2017-07-01T12:44:39.569Z,100323.02
2017-07-01T12:47:11.889Z,100335.74
2017-07-01T12:49:44.332Z,100342.27
2017-07-01T12:52:16.823Z,100342.73
2017-07-01T12:54:49.133Z,100347.30
2017-07-01T12:57:21.539Z,100349.78
2017-07-01T12:59:54.771Z,100344.29
2017-07-01T13:02:27.260Z,100349.59
2017-07-01T13:04:59.924Z,100358.48
2017-07-01T13:07:32.128Z,100357.57
2017-07-01T13:10:04.744Z,100367.48
2017-07-01T13:12:37.124Z,100372.06
2017-07-01T13:15:09.541Z,100379.92
2017-07-01T13:17:42.100Z,100380.91
2017-07-01T13:20:14.201Z,100378.42
2017-07-01T13:22:46.611Z,100394.22
2017-07-01T13:25:19.148Z,100383.64
2017-07-01T13:27:51.647Z,100395.15
2017-07-01T13:30:24.955Z,100397.15
2017-07-01T13:32:57.400Z,100393.22
2017-07-01T13:35:29.919Z,100390.55
2017-07-01T13:38:02.520Z,100397.76
2017-07-01T13:40:34.948Z,100400.69
2017-07-01T13:43:07.324Z,100409.16
2017-07-01T13:45:39.572Z,100404.53
2017-07-01T13:48:12.000Z,100412.97
2017-07-01T13:50:44.712Z,100415.41
2017-07-01T13:53:16.745Z,100421.58
2017-07-01T13:55:50.064Z,100424.98
2017-07-01T13:58:22.797Z,100430.06
2017-07-01T14:00:55.448Z,100427.52
2017-07-01T14:03:29.786Z,100437.77
2017-07-01T14:09:07.076Z,100446.38
2017-07-01T14:11:53.299Z,100441.94
2017-07-01T14:14:25.472Z,100446.27
2017-07-01T14:16:57.733Z,100440.28
2017-07-01T14:19:30.223Z,100458.88
2017-07-01T14:22:03.613Z,100453.96
2017-07-01T14:24:36.085Z,100466.39
2017-07-01T14:27:08.489Z,100474.26
2017-07-01T14:29:40.916Z,100474.52
2017-07-01T14:32:13.286Z,100474.58
2017-07-01T14:34:45.682Z,100482.14
2017-07-01T14:37:18.113Z,100485.25
2017-07-01T14:39:50.485Z,100476.42
2017-07-01T14:42:23.013Z,100481.36
2017-07-01T14:44:55.417Z,100486.41
2017-07-01T14:47:27.664Z,100489.56
2017-07-01T14:50:00.022Z,100494.30
2017-07-01T14:52:32.421Z,100501.50
2017-07-01T14:55:04.844Z,100497.77
2017-07-01T14:57:37.652Z,100503.64
2017-07-01T15:00:09.617Z,100503.50
2017-07-01T15:02:49.236Z,100508.13
2017-07-01T15:05:21.411Z,100510.38
2017-07-01T15:07:53.832Z,100515.95
2017-07-01T15:10:26.317Z,100518.59
2017-07-01T15:12:58.582Z,100517.06
2017-07-01T15:15:30.904Z,100525.06
2017-07-01T15:18:03.585Z,100523.41
2017-07-01T15:20:35.521Z,100532.67
2017-07-01T15:23:07.952Z,100544.17
2017-07-01T15:25:40.392Z,100549.23
2017-07-01T15:28:12.809Z,100544.41
2017-07-01T15:30:45.076Z,100544.31
2017-07-01T15:33:17.452Z,100539.83
2017-07-01T15:35:49.813Z,100545.60
2017-07-01T15:38:22.282Z,100540.39
2017-07-01T15:40:54.767Z,100547.30
2017-07-01T15:43:27.156Z,100550.88
2017-07-01T15:45:59.573Z,100560.53
2017-07-01T15:48:32.928Z,100561.02
2017-07-01T15:51:05.281Z,100562.52
2017-07-01T15:53:37.885Z,100563.23
2017-07-01T15:56:10.124Z,100576.66
2017-07-01T15:58:42.536Z,100573.66
2017-07-01T16:01:27.324Z,100575.51
2017-07-01T16:03:59.443Z,100573.69
2017-07-01T16:06:31.782Z,100579.87
2017-07-01T16:09:04.194Z,100583.19
2017-07-01T16:11:36.532Z,100580.05
2017-07-01T16:14:08.943Z,100575.22
2017-07-01T16:16:41.616Z,100568.00
2017-07-01T16:19:13.796Z,100571.53
2017-07-01T16:21:46.247Z,100570.20
2017-07-01T16:24:18.659Z,100576.72
2017-07-01T16:26:51.009Z,100577.42
2017-07-01T16:29:23.344Z,100575.37
2017-07-01T16:31:55.842Z,100578.14
2017-07-01T16:34:28.249Z,100584.09
2017-07-01T16:37:00.704Z,100575.54
2017-07-01T16:39:33.305Z,100579.55
2017-07-01T16:42:05.788Z,100568.55
2017-07-01T16:44:38.981Z,100580.63
2017-07-01T16:47:11.505Z,100580.97
2017-07-01T16:49:44.900Z,100571.71
2017-07-01T16:52:17.300Z,100579.34
2017-07-01T16:54:49.712Z,100584.13
2017-07-01T16:57:22.047Z,100581.23
2017-07-01T16:59:55.368Z,100583.98
2017-07-01T17:02:27.807Z,100586.95
2017-07-01T17:05:00.232Z,100575.81
2017-07-01T17:07:32.671Z,100584.49
2017-07-01T17:10:05.070Z,100586.88
2017-07-01T17:12:37.445Z,100581.41
2017-07-01T17:15:09.937Z,100577.88
2017-07-01T17:17:42.496Z,100579.52
2017-07-01T17:20:14.696Z,100581.53
2017-07-01T17:22:47.067Z,100585.34
2017-07-01T17:25:19.515Z,100589.11
2017-07-01T17:27:52.728Z,100585.58
2017-07-01T17:30:25.305Z,100582.70
2017-07-01T17:32:57.524Z,100588.94
2017-07-01T17:35:29.980Z,100584.31
2017-07-01T17:38:02.325Z,100586.43
2017-07-01T17:40:34.666Z,100583.01
2017-07-01T17:43:07.008Z,100596.30
2017-07-01T17:45:39.425Z,100602.61
2017-07-01T17:48:11.671Z,100600.05
2017-07-01T17:50:44.050Z,100597.09
2017-07-01T17:53:16.241Z,100612.23
2017-07-01T17:55:48.699Z,100610.50
2017-07-01T17:58:21.062Z,100617.78
2017-07-01T18:00:54.565Z,100623.55
2017-07-01T18:03:26.952Z,100630.11
2017-07-01T18:05:59.443Z,100627.88
2017-07-01T18:08:31.881Z,100629.89
2017-07-01T18:11:04.417Z,100637.12
2017-07-01T18:13:36.636Z,100631.73
2017-07-01T18:16:09.927Z,100639.69
2017-07-01T18:18:42.321Z,100636.67
2017-07-01T18:21:14.631Z,100641.82
2017-07-01T18:23:46.986Z,100640.02
2017-07-01T18:26:19.362Z,100649.23
2017-07-01T18:28:51.605Z,100649.12
2017-07-01T18:31:23.969Z,100658.42
2017-07-01T18:33:56.446Z,100656.59
2017-07-01T18:36:28.844Z,100663.05
2017-07-01T18:39:01.162Z,100661.98
2017-07-01T18:41:33.487Z,100659.03
2017-07-01T18:44:06.021Z,100664.22
2017-07-01T18:46:38.894Z,100666.24
2017-07-01T18:49:12.004Z,100675.01
2017-07-01T18:51:44.205Z,100679.01
2017-07-01T18:54:16.444Z,100681.55
2017-07-01T18:56:49.831Z,100686.66
2017-07-01T18:59:22.901Z,100690.24
2017-07-01T19:01:55.622Z,100693.81
2017-07-01T19:04:28.196Z,100702.97
2017-07-01T19:07:00.691Z,100700.88
2017-07-01T19:09:32.980Z,100703.36
2017-07-01T19:12:05.421Z,100710.05
2017-07-01T19:14:37.776Z,100708.86
2017-07-01T19:17:11.156Z,100711.13
2017-07-01T19:19:43.768Z,100719.36
2017-07-01T19:22:16.237Z,100722.55
2017-07-01T19:24:48.708Z,100727.84
2017-07-01T19:27:21.116Z,100723.34
2017-07-01T19:29:53.453Z,100727.70
2017-07-01T19:32:26.752Z,100738.73
2017-07-01T19:34:59.384Z,100742.76
2017-07-01T19:37:32.089Z,100747.45
2017-07-01T19:40:04.081Z,100753.69
2017-07-01T19:42:36.500Z,100755.29
2017-07-01T19:45:08.813Z,100758.53
2017-07-01T19:47:41.224Z,100764.42
2017-07-01T19:50:13.625Z,100767.90
2017-07-01T19:52:45.999Z,100769.70
2017-07-01T19:55:18.421Z,100773.72
2017-07-01T19:57:50.837Z,100771.22
2017-07-01T20:00:23.400Z,100785.28
2017-07-01T20:02:55.757Z,100785.83
2017-07-01T20:05:28.260Z,100785.45
2017-07-01T20:08:00.580Z,100791.45
2017-07-01T20:10:32.810Z,100798.66
2017-07-01T20:13:05.071Z,100807.77
2017-07-01T20:15:37.345Z,100814.27
2017-07-01T20:18:16.079Z,100810.63
2017-07-01T20:20:48.216Z,100812.05
2017-07-01T20:23:20.720Z,100823.16
2017-07-01T20:25:53.040Z,100826.92
2017-07-01T20:28:25.398Z,100831.84
2017-07-01T20:30:57.715Z,100827.80
2017-07-01T20:33:30.087Z,100827.33
2017-07-01T20:36:02.359Z,100836.34
2017-07-01T20:38:34.981Z,100838.43
2017-07-01T20:41:07.351Z,100844.52
2017-07-01T20:43:39.756Z,100847.70
2017-07-01T20:46:11.971Z,100846.59
2017-07-01T20:48:44.352Z,100854.64
2017-07-01T20:51:16.679Z,100861.69
2017-07-01T20:53:49.865Z,100864.03
2017-07-01T20:56:23.104Z,100863.49
2017-07-01T20:58:55.609Z,100862.70
2017-07-01T21:01:27.976Z,100868.94
2017-07-01T21:04:00.373Z,100872.46
2017-07-01T21:06:32.666Z,100875.09
2017-07-01T21:09:05.074Z,100879.16
2017-07-01T21:11:37.416Z,100879.78
2017-07-01T21:14:10.713Z,100881.73
2017-07-01T21:16:43.286Z,100886.66
2017-07-01T21:19:15.712Z,100891.95
2017-07-01T21:21:48.125Z,100895.72
2017-07-01T21:24:20.528Z,100904.80
2017-07-01T21:26:53.090Z,100904.80
2017-07-01T21:29:25.180Z,100902.13
2017-07-01T21:31:57.515Z,100913.95
2017-07-01T21:34:29.952Z,100918.20
2017-07-01T21:37:02.389Z,100918.91
2017-07-01T21:39:34.959Z,100917.11
2017-07-01T21:42:06.999Z,100922.43
2017-07-01T21:44:39.424Z,100916.92
2017-07-01T21:47:11.933Z,100930.03
2017-07-01T21:49:44.282Z,100928.63
2017-07-01T21:52:17.517Z,100935.42
2017-07-01T21:54:49.884Z,100945.30
2017-07-01T21:57:22.291Z,100950.17
2017-07-01T21:59:54.663Z,100945.78
2017-07-01T22:02:27.094Z,100948.14
2017-07-01T22:05:00.507Z,100949.73
2017-07-01T22:07:33.108Z,100951.69
2017-07-01T22:10:05.200Z,100954.12
2017-07-01T22:12:37.784Z,100969.52
2017-07-01T22:15:10.912Z,100964.08
2017-07-01T22:17:44.200Z,100962.20
2017-07-01T22:20:16.712Z,100967.55
2017-07-01T22:22:48.975Z,100976.22
2017-07-01T22:25:21.376Z,100968.91
2017-07-01T22:27:53.788Z,100975.77
2017-07-01T22:30:26.003Z,100971.49
2017-07-01T22:32:58.489Z,100974.84
2017-07-01T22:35:30.891Z,100981.63
2017-07-01T22:38:03.245Z,100975.99
2017-07-01T22:40:35.627Z,100986.49
2017-07-01T22:43:07.995Z,100985.85
2017-07-01T22:45:40.493Z,100982.30
2017-07-01T22:48:12.939Z,100986.92
2017-07-01T22:50:45.712Z,100989.95
2017-07-01T22:53:17.672Z,100988.42
2017-07-01T22:55:50.057Z,100999.36
2017-07-01T22:58:22.432Z,101004.36
2017-07-01T23:00:54.789Z,101002.95
2017-07-01T23:03:27.176Z,101007.21
2017-07-01T23:05:59.563Z,101010.28
2017-07-01T23:08:31.928Z,101006.59
2017-07-01T23:11:04.369Z,101011.09
2017-07-01T23:13:36.757Z,101018.64
2017-07-01T23:16:09.255Z,101027.17
2017-07-01T23:18:42.529Z,101022.79
2017-07-01T23:21:14.936Z,101026.02
2017-07-01T23:23:47.313Z,101025.14
2017-07-01T23:26:20.637Z,101025.58
2017-07-01T23:28:53.223Z,101034.46
2017-07-01T23:31:25.716Z,101032.95
2017-07-01T23:33:58.113Z,101040.52
2017-07-01T23:36:30.495Z,101042.09
2017-07-01T23:39:02.873Z,101044.23
2017-07-01T23:41:35.205Z,101041.58
2017-07-01T23:44:07.512Z,101044.89
2017-07-01T23:46:39.740Z,101043.68
2017-07-01T23:49:12.173Z,101051.11
2017-07-01T23:51:44.419Z,101050.16
2017-07-01T23:54:17.091Z,101051.75
2017-07-01T23:56:49.181Z,101049.23
2017-07-01T23:59:21.567Z,101050.30
